Time;durP1;ratioP1;P1;durP2;ratioP2;P2;SDS_P1;SDS_P2;PMS_P1;PMS_P2;Temp;Humidity;BMP_temperature;BMP_pressure;BME280_temperature;BME280_humidity;BME280_pressure;Samples;Min_cycle;Max_cycle;Signal;HPM_P1;HPM_P2
2022/08/15 00:00:14;;;;;;;0.70;0.60;;;;;;;23.30;63.28;99754.06;683945;29;1135;-91
2022/08/15 00:00:37;;;;;;;0.70;0.60;;;;;;;23.26;63.45;99738.22;682997;28;1657;-91
2022/08/15 00:00:57;;;;;;;0.70;0.60;;;;;;;23.30;63.38;99749.56;674218;29;1998;-92
2022/08/15 00:01:23;;;;;;;0.70;0.60;;;;;;;23.32;63.24;99753.06;680736;29;1393;-92
2022/08/15 00:01:44;;;;;;;0.70;0.60;;;;;;;23.31;63.50;99750.47;678155;29;1221;-92
2022/08/15 00:02:06;;;;;;;0.70;0.60;;;;;;;23.23;63.58;99738.34;675182;29;1859;-92
2022/08/15 00:02:27;;;;;;;0.70;0.60;;;;;;;23.26;63.44;99745.34;675115;29;1198;-92
2022/08/15 00:02:49;;;;;;;0.70;0.60;;;;;;;23.26;63.39;99740.88;678197;29;1178;-92
2022/08/15 00:03:27;;;;;;;0.70;0.60;;;;;;;23.26;63.52;99742.66;678044;29;1162;-92
2022/08/15 00:03:54;;;;;;;0.70;0.60;;;;;;;23.23;63.35;99738.34;674205;29;1250;-92
2022/08/15 00:04:15;;;;;;;0.70;0.60;;;;;;;23.25;63.33;99736.47;677685;29;1744;-91
2022/08/15 00:04:36;;;;;;;0.70;0.60;;;;;;;23.28;63.51;99748.78;682364;28;2005;-91
2022/08/15 00:05:01;;;;;;;0.70;0.60;;;;;;;23.27;63.42;99747.94;682846;29;1899;-92
2022/08/15 00:05:22;;;;;;;0.70;0.60;;;;;;;23.26;63.21;99740.88;670376;29;1571;-92
2022/08/15 00:05:43;;;;;;;0.70;0.60;;;;;;;23.20;63.42;99737.59;675351;29;1614;-92
2022/08/15 00:06:08;;;;;;;0.70;0.55;;;;;;;23.27;63.40;99741.72;678066;29;1201;-92
2022/08/15 00:06:36;;;;;;;0.70;0.60;;;;;;;23.24;63.45;99734.75;675284;29;2027;-92
2022/08/15 00:06:56;;;;;;;0.70;0.60;;;;;;;23.17;63.09;99727.94;677310;29;1257;-92
2022/08/15 00:07:17;;;;;;;0.70;0.70;;;;;;;23.25;63.21;99744.44;680460;29;1193;-92
2022/08/15 00:07:39;;;;;;;0.70;0.63;;;;;;;23.27;63.30;99745.28;675364;29;1772;-92
2022/08/15 00:08:00;;;;;;;0.70;0.60;;;;;;;23.19;63.42;99742.06;680938;29;1221;-92
2022/08/15 00:08:21;;;;;;;0.70;0.60;;;;;;;23.27;63.54;99745.28;677836;29;1943;-92
2022/08/15 00:08:47;;;;;;;0.70;0.60;;;;;;;23.25;63.42;99752.44;682171;29;2039;-92
2022/08/15 00:09:22;;;;;;;0.70;0.60;;;;;;;23.18;63.37;99734.13;682566;29;1334;-92
2022/08/15 00:09:42;;;;;;;0.70;0.60;;;;;;;23.24;63.61;99750.72;672368;29;1299;-92
2022/08/15 00:10:04;;;;;;;0.80;0.77;;;;;;;23.08;63.53;99738.97;675286;29;1237;-92
2022/08/15 00:10:57;;;;;;;0.80;0.80;;;;;;;23.21;63.40;99752.63;681128;28;1547;-91
2022/08/15 00:11:27;;;;;;;0.70;0.60;;;;;;;23.15;63.41;99735.13;682249;29;1628;-92
2022/08/15 00:11:56;;;;;;;0.70;0.60;;;;;;;23.18;63.29;99740.31;671576;29;1239;-91
2022/08/15 00:12:17;;;;;;;0.70;0.60;;;;;;;23.13;63.32;99734.34;680251;29;1309;-91
2022/08/15 00:12:39;;;;;;;0.70;0.60;;;;;;;23.21;63.26;99741.97;674104;29;1590;-92
2022/08/15 00:13:01;;;;;;;0.70;0.60;;;;;;;23.17;63.40;99743.91;680103;29;1310;-91
2022/08/15 00:13:25;;;;;;;0.70;0.60;;;;;;;23.17;63.51;99741.25;677786;29;1349;-92
2022/08/15 00:13:50;;;;;;;0.70;0.60;;;;;;;23.18;63.35;99740.31;675225;29;1646;-92
2022/08/15 00:14:15;;;;;;;0.70;0.60;;;;;;;23.12;63.43;99735.25;683823;28;1366;-91
2022/08/15 00:14:37;;;;;;;0.70;0.60;;;;;;;23.08;63.15;99723.00;680372;29;1538;-91
2022/08/15 00:14:58;;;;;;;0.70;0.60;;;;;;;23.11;63.28;99738.84;681048;28;1359;-91
2022/08/15 00:15:19;;;;;;;0.80;0.80;;;;;;;23.16;63.47;99742.19;680196;29;1131;-92
2022/08/15 00:15:41;;;;;;;0.80;0.80;;;;;;;23.12;63.53;99736.13;680529;29;1624;-92
2022/08/15 00:16:04;;;;;;;0.80;0.80;;;;;;;23.14;63.35;99738.72;677626;29;1190;-92
2022/08/15 00:16:25;;;;;;;0.70;0.70;;;;;;;23.14;63.37;99738.72;682235;29;1710;-92
2022/08/15 00:16:47;;;;;;;0.70;0.60;;;;;;;23.17;63.46;99737.72;677880;29;1628;-92
2022/08/15 00:17:09;;;;;;;0.70;0.60;;;;;;;23.18;63.27;99739.47;669916;29;1313;-92
2022/08/15 00:17:30;;;;;;;0.70;0.60;;;;;;;23.16;63.40;99739.50;672598;29;1185;-91
2022/08/15 00:17:52;;;;;;;0.70;0.60;;;;;;;23.17;63.51;99737.72;677803;29;1712;-92
2022/08/15 00:18:13;;;;;;;0.70;0.60;;;;;;;23.19;63.57;99742.06;683090;29;1154;-91
2022/08/15 00:18:34;;;;;;;0.70;0.60;;;;;;;23.16;63.40;99736.84;680213;28;1873;-92
2022/08/15 00:18:55;;;;;;;0.70;0.60;;;;;;;23.13;63.28;99727.19;677532;29;1186;-92
2022/08/15 00:19:19;;;;;;;0.70;0.60;;;;;;;23.17;63.21;99738.59;680308;29;1145;-92
2022/08/15 00:19:44;;;;;;;0.70;0.60;;;;;;;23.12;63.35;99729.94;677526;29;1863;-91
2022/08/15 00:20:08;;;;;;;0.70;0.60;;;;;;;23.17;63.30;99735.06;680378;29;1581;-92
2022/08/15 00:20:29;;;;;;;0.70;0.60;;;;;;;23.19;63.15;99733.22;678570;29;1605;-92
2022/08/15 00:20:50;;;;;;;0.70;0.60;;;;;;;23.20;63.28;99743.78;678584;29;1375;-91
2022/08/15 00:21:11;;;;;;;0.70;0.60;;;;;;;23.17;63.13;99740.41;677763;29;2109;-91
2022/08/15 00:21:32;;;;;;;0.70;0.60;;;;;;;23.22;63.28;99743.72;680477;29;1299;-92
2022/08/15 00:21:55;;;;;;;0.70;0.60;;;;;;;23.17;63.18;99737.72;680439;29;1201;-92
2022/08/15 00:22:20;;;;;;;0.70;0.60;;;;;;;23.17;63.25;99738.59;677678;29;1255;-92
2022/08/15 00:22:51;;;;;;;0.70;0.50;;;;;;;23.14;63.15;99733.41;680412;29;1754;-92
2022/08/15 00:23:14;;;;;;;0.70;0.60;;;;;;;23.16;63.26;99734.19;681445;29;1596;-92
2022/08/15 00:23:35;;;;;;;0.70;0.60;;;;;;;23.21;63.22;99750.84;679161;29;1312;-92
2022/08/15 00:23:56;;;;;;;0.70;0.60;;;;;;;23.17;63.27;99743.91;679530;29;1274;-91
2022/08/15 00:24:25;;;;;;;0.70;0.60;;;;;;;23.13;63.38;99731.66;680593;29;1200;-91
2022/08/15 00:24:48;;;;;;;0.70;0.60;;;;;;;23.13;63.07;99742.31;673474;29;1348;-92
2022/08/15 00:25:09;;;;;;;0.70;0.50;;;;;;;23.13;63.40;99729.84;680219;29;1256;-92
2022/08/15 00:25:30;;;;;;;0.70;0.60;;;;;;;23.20;63.38;99746.47;678617;29;1295;-91
2022/08/15 00:25:55;;;;;;;0.70;0.60;;;;;;;23.19;63.39;99742.06;674867;29;1307;-91
2022/08/15 00:26:16;;;;;;;0.70;0.60;;;;;;;23.19;63.29;99742.06;680085;29;1284;-92
2022/08/15 00:26:37;;;;;;;0.70;0.60;;;;;;;23.15;63.38;99737.78;680458;29;1253;-91
2022/08/15 00:27:00;;;;;;;0.70;0.60;;;;;;;23.24;63.39;99752.53;680287;29;1214;-92
2022/08/15 00:27:24;;;;;;;0.70;0.60;;;;;;;23.17;63.20;99733.25;675160;29;1300;-92
2022/08/15 00:27:44;;;;;;;0.70;0.60;;;;;;;23.22;63.26;99749.91;677579;29;1362;-92
2022/08/15 00:28:07;;;;;;;0.70;0.60;;;;;;;23.20;63.37;99743.78;675084;29;1130;-91
2022/08/15 00:28:29;;;;;;;0.70;0.60;;;;;;;23.19;63.11;99747.38;674945;29;1852;-92
2022/08/15 00:28:50;;;;;;;0.70;0.60;;;;;;;23.22;63.08;99749.03;674264;29;1478;-92
2022/08/15 00:29:12;;;;;;;0.70;0.60;;;;;;;23.24;63.28;99750.72;678216;29;1688;-92
2022/08/15 00:29:34;;;;;;;0.70;0.70;;;;;;;23.24;63.15;99734.75;679276;29;1657;-92
2022/08/15 00:29:55;;;;;;;0.70;0.60;;;;;;;23.26;63.37;99748.88;676685;29;1870;-92
2022/08/15 00:30:17;;;;;;;0.70;0.60;;;;;;;23.27;63.13;99750.59;680231;29;1197;-92
2022/08/15 00:30:40;;;;;;;0.70;0.60;;;;;;;23.26;63.35;99748.00;679649;29;1683;-91
2022/08/15 00:31:03;;;;;;;0.70;0.60;;;;;;;23.23;63.08;99734.81;669998;29;1295;-91
2022/08/15 00:31:24;;;;;;;0.70;0.60;;;;;;;23.22;63.24;99735.72;675137;29;2015;-92
2022/08/15 00:31:45;;;;;;;0.70;0.60;;;;;;;23.28;63.47;99752.31;679851;29;1743;-92
2022/08/15 00:32:19;;;;;;;0.80;0.80;;;;;;;23.27;63.45;99745.28;674944;29;2063;-91
2022/08/15 00:33:01;;;;;;;0.80;0.80;;;;;;;23.33;63.36;99745.94;672490;29;1681;-92
2022/08/15 00:33:22;;;;;;;0.70;0.70;;;;;;;23.33;63.26;99748.59;680355;29;1321;-91
2022/08/15 00:33:44;;;;;;;0.70;0.70;;;;;;;23.35;63.36;99747.59;680233;29;1706;-92
2022/08/15 00:34:10;;;;;;;0.70;0.70;;;;;;;23.31;63.41;99740.69;674838;29;1297;-91
2022/08/15 00:34:31;;;;;;;0.70;0.60;;;;;;;23.32;63.20;99730.91;677743;29;1209;-92
2022/08/15 00:34:52;;;;;;;0.70;0.57;;;;;;;23.32;63.29;99736.22;680186;29;1791;-91
2022/08/15 00:35:52;;;;;;;0.70;0.50;;;;;;;23.40;63.50;99742.09;676052;29;1325;-92
2022/08/15 00:36:14;;;;;;;0.70;0.50;;;;;;;23.44;63.45;99741.03;680363;29;1517;-92
2022/08/15 00:36:34;;;;;;;0.70;0.60;;;;;;;23.44;63.32;99743.69;672379;29;1750;-92
2022/08/15 00:36:55;;;;;;;0.70;0.60;;;;;;;23.46;63.34;99736.50;674839;29;2033;-91
2022/08/15 00:37:18;;;;;;;0.70;0.60;;;;;;;23.54;63.08;99753.03;680447;29;1271;-92
2022/08/15 00:37:38;;;;;;;0.70;0.60;;;;;;;23.50;63.28;99740.78;680270;29;2067;-92
2022/08/15 00:37:59;;;;;;;0.70;0.60;;;;;;;23.54;63.45;99744.16;674446;29;1163;-92
2022/08/15 00:38:23;;;;;;;0.70;0.70;;;;;;;23.56;63.41;99744.97;675766;29;2006;-91
2022/08/15 00:38:43;;;;;;;0.90;0.90;;;;;;;23.61;63.35;99744.78;688171;28;1166;-92
2022/08/15 00:39:06;;;;;;;0.82;0.82;;;;;;;23.65;63.22;99754.34;680337;29;1207;-92
2022/08/15 00:39:28;;;;;;;0.80;0.80;;;;;;;23.60;63.23;99743.91;672480;29;1502;-92
2022/08/15 00:39:49;;;;;;;0.70;0.60;;;;;;;23.61;63.08;99739.44;679804;29;1277;-92
2022/08/15 00:40:09;;;;;;;0.70;0.60;;;;;;;23.69;63.37;99750.63;678289;29;1849;-92
2022/08/15 00:41:39;;;;;;;0.70;0.50;;;;;;;23.70;63.12;99757.69;682028;29;1660;-91
2022/08/15 00:41:58;;;;;;;0.70;0.70;;;;;;;23.74;63.24;99742.47;677186;29;1316;-92
2022/08/15 00:42:23;;;;;;;0.70;0.70;;;;;;;23.80;63.12;99745.72;672393;29;1340;-92
2022/08/15 00:42:43;;;;;;;0.70;0.60;;;;;;;23.83;63.50;99748.28;677746;29;1656;-92
2022/08/15 00:43:04;;;;;;;0.70;0.60;;;;;;;23.82;63.02;99745.66;677367;29;1195;-92
2022/08/15 00:43:26;;;;;;;0.70;0.60;;;;;;;23.84;63.43;99746.47;680207;29;1925;-91
2022/08/15 00:43:51;;;;;;;0.70;0.60;;;;;;;23.90;63.40;99753.34;685639;28;1215;-92
2022/08/15 00:44:26;;;;;;;0.70;0.60;;;;;;;23.94;63.18;99752.25;683793;28;1541;-92
2022/08/15 00:44:47;;;;;;;0.80;0.80;;;;;;;23.92;63.58;99741.66;672421;29;1238;-91
2022/08/15 00:45:09;;;;;;;0.90;0.90;;;;;;;24.01;63.42;99751.03;680238;29;1118;-92
2022/08/15 00:45:30;;;;;;;0.70;0.65;;;;;;;24.01;63.31;99740.38;683502;28;2013;-92
2022/08/15 00:45:52;;;;;;;0.70;0.60;;;;;;;24.03;63.54;99740.31;672584;29;1174;-91
2022/08/15 00:46:15;;;;;;;0.70;0.60;;;;;;;24.14;63.40;99745.19;680102;29;1411;-92
2022/08/15 00:46:38;;;;;;;0.70;0.60;;;;;;;24.17;63.14;99751.19;682668;28;1607;-91
2022/08/15 00:47:03;;;;;;;0.70;0.60;;;;;;;24.22;63.36;99751.03;680200;29;1286;-92
2022/08/15 00:47:23;;;;;;;0.70;0.60;;;;;;;24.17;63.04;99740.53;677441;29;1664;-92
2022/08/15 00:48:41;;;;;;;0.70;0.60;;;;;;;24.27;63.09;99754.31;677665;29;1700;-92
2022/08/15 00:48:43;;;;;;;0.70;0.60;;;;;;;24.25;63.20;99742.88;680263;28;1704;-89
2022/08/15 00:49:05;;;;;;;0.70;0.60;;;;;;;24.26;62.83;99739.28;677463;29;1329;-92
2022/08/15 00:49:30;;;;;;;0.70;0.60;;;;;;;24.35;62.99;99751.31;674562;29;1190;-91
2022/08/15 00:49:51;;;;;;;0.70;0.60;;;;;;;24.33;63.15;99747.84;675726;29;1613;-92
2022/08/15 00:50:15;;;;;;;0.70;0.60;;;;;;;24.37;63.04;99747.66;677567;29;1166;-92
2022/08/15 00:50:38;;;;;;;0.70;0.60;;;;;;;24.35;63.12;99756.66;676289;29;1534;-92
2022/08/15 00:50:59;;;;;;;0.70;0.60;;;;;;;24.37;62.80;99750.31;680212;29;1255;-92
2022/08/15 00:51:35;;;;;;;0.70;0.60;;;;;;;24.46;62.80;99751.72;675072;29;1182;-92
2022/08/15 00:52:10;;;;;;;0.70;0.60;;;;;;;24.42;62.92;99739.47;672350;29;1194;-92
2022/08/15 00:52:33;;;;;;;0.70;0.60;;;;;;;24.47;62.69;99747.25;677524;29;1720;-92
2022/08/15 00:52:54;;;;;;;0.70;0.50;;;;;;;24.47;62.71;99747.25;674861;29;1328;-92
2022/08/15 00:53:15;;;;;;;0.70;0.60;;;;;;;24.47;62.79;99747.25;672057;29;1320;-91
2022/08/15 00:53:37;;;;;;;0.70;0.70;;;;;;;24.46;62.90;99746.38;675033;29;1225;-91
2022/08/15 00:54:04;;;;;;;0.70;0.70;;;;;;;24.51;62.61;99748.81;679313;29;1190;-92
2022/08/15 00:54:31;;;;;;;0.70;0.63;;;;;;;24.47;62.67;99741.91;677583;29;1393;-91
2022/08/15 00:55:00;;;;;;;0.70;0.60;;;;;;;24.53;62.55;99746.94;672360;29;1115;-92
2022/08/15 00:55:22;;;;;;;0.70;0.60;;;;;;;24.53;62.69;99740.75;675949;29;1273;-92
2022/08/15 00:55:45;;;;;;;0.70;0.50;;;;;;;24.54;62.80;99742.50;675273;29;1265;-92
2022/08/15 00:56:08;;;;;;;0.70;0.50;;;;;;;24.51;62.74;99732.81;677677;29;1211;-92
2022/08/15 00:56:36;;;;;;;0.70;0.60;;;;;;;24.57;62.84;99748.53;677432;29;1752;-92
2022/08/15 00:57:04;;;;;;;0.70;0.60;;;;;;;24.60;62.69;99745.72;677490;29;1304;-92
2022/08/15 00:57:33;;;;;;;0.70;0.70;;;;;;;24.63;62.56;99750.94;677702;29;1435;-91
2022/08/15 00:57:55;;;;;;;0.70;0.70;;;;;;;24.65;62.55;99746.38;675527;29;1292;-91
2022/08/15 00:58:16;;;;;;;0.70;0.60;;;;;;;24.63;62.67;99742.03;677346;29;1432;-91
2022/08/15 00:58:39;;;;;;;0.70;0.60;;;;;;;24.62;62.48;99741.19;680964;28;1925;-92
2022/08/15 00:59:01;;;;;;;0.70;0.60;;;;;;;24.69;62.66;99752.44;675393;29;1460;-91
2022/08/15 00:59:26;;;;;;;0.70;0.60;;;;;;;24.68;62.71;99744.50;678178;29;1354;-92
2022/08/15 00:59:52;;;;;;;0.70;0.60;;;;;;;24.68;62.59;99750.69;682365;29;1655;-91
2022/08/15 01:00:22;;;;;;;0.70;0.60;;;;;;;24.71;62.44;99752.38;677220;28;1371;-92
2022/08/15 01:00:47;;;;;;;0.70;0.60;;;;;;;24.69;62.61;99746.22;675014;29;2047;-92
2022/08/15 01:01:11;;;;;;;0.70;0.60;;;;;;;24.72;62.32;99746.09;680005;28;1907;-91
2022/08/15 01:01:32;;;;;;;0.70;0.60;;;;;;;24.66;62.48;99736.59;681067;29;1493;-92
2022/08/15 01:01:55;;;;;;;0.70;0.60;;;;;;;24.74;62.56;99754.88;679484;29;1606;-92
2022/08/15 01:02:23;;;;;;;0.70;0.60;;;;;;;24.65;62.43;99730.38;674814;29;1323;-92
2022/08/15 01:02:45;;;;;;;0.70;0.60;;;;;;;24.70;62.32;99737.31;675081;29;1356;-91
2022/08/15 01:03:11;;;;;;;0.70;0.60;;;;;;;24.74;62.47;99738.88;677387;29;1218;-92
2022/08/15 01:03:36;;;;;;;0.70;0.60;;;;;;;24.75;62.49;99744.13;677033;29;1294;-91
2022/08/15 01:03:57;;;;;;;0.70;0.60;;;;;;;24.76;62.47;99736.97;682674;28;1413;-92
2022/08/15 01:04:19;;;;;;;0.70;0.60;;;;;;;24.71;62.44;99731.88;685381;28;1192;-92
2022/08/15 01:04:40;;;;;;;0.70;0.60;;;;;;;24.75;62.23;99737.94;670382;29;1604;-91
2022/08/15 01:05:04;;;;;;;0.70;0.60;;;;;;;24.75;62.31;99740.59;679934;29;1364;-91
2022/08/15 01:05:25;;;;;;;0.70;0.60;;;;;;;24.76;62.35;99745.88;677580;29;1213;-92
2022/08/15 01:05:51;;;;;;;0.70;0.60;;;;;;;24.73;62.51;99732.69;674908;29;1311;-91
2022/08/15 01:06:12;;;;;;;0.70;0.60;;;;;;;24.75;62.39;99740.59;677561;29;1135;-92
2022/08/15 01:06:36;;;;;;;0.70;0.60;;;;;;;24.77;62.24;99736.06;675699;29;2007;-92
2022/08/15 01:06:58;;;;;;;0.70;0.60;;;;;;;24.79;62.23;99745.72;680133;29;1210;-92
2022/08/15 01:07:20;;;;;;;0.70;0.60;;;;;;;24.81;62.32;99747.44;682782;28;1182;-92
2022/08/15 01:07:43;;;;;;;0.70;0.50;;;;;;;24.79;62.39;99737.69;683095;28;1164;-92
2022/08/15 01:08:03;;;;;;;0.70;0.50;;;;;;;24.77;62.19;99739.59;677577;29;1341;-92
2022/08/15 01:08:28;;;;;;;0.70;0.52;;;;;;;24.82;62.26;99747.38;680035;29;1221;-92
2022/08/15 01:08:50;;;;;;;0.70;0.60;;;;;;;24.83;62.29;99737.56;678243;29;1313;-92
2022/08/15 01:09:10;;;;;;;0.70;0.60;;;;;;;24.84;62.45;99745.47;677524;29;1300;-92
2022/08/15 01:09:32;;;;;;;0.70;0.60;;;;;;;24.83;62.06;99746.44;679871;29;1597;-92
2022/08/15 01:09:53;;;;;;;0.70;0.70;;;;;;;24.87;62.13;99749.81;680620;29;1650;-92
2022/08/15 01:10:14;;;;;;;0.70;0.70;;;;;;;24.87;61.99;99749.81;674855;29;1230;-92
2022/08/15 01:10:37;;;;;;;0.70;0.70;;;;;;;24.88;62.37;99757.75;677609;29;1581;-92
2022/08/15 01:11:02;;;;;;;0.70;0.60;;;;;;;24.86;62.20;99748.09;680032;29;1735;-92
2022/08/15 01:11:31;;;;;;;0.70;0.60;;;;;;;24.88;61.81;99743.53;682557;29;1717;-92
2022/08/15 01:12:05;;;;;;;0.70;0.60;;;;;;;24.84;61.81;99739.31;675981;29;1366;-91
2022/08/15 01:12:26;;;;;;;0.70;0.60;;;;;;;24.88;62.16;99744.41;672569;29;1143;-92
2022/08/15 01:12:47;;;;;;;0.70;0.60;;;;;;;24.84;61.97;99734.81;681970;29;1588;-92
2022/08/15 01:13:07;;;;;;;0.70;0.60;;;;;;;24.95;61.90;99752.13;680128;29;1269;-92
2022/08/15 01:13:30;;;;;;;0.70;0.60;;;;;;;24.95;61.86;99752.13;674430;29;1973;-92
2022/08/15 01:13:54;;;;;;;0.70;0.60;;;;;;;24.96;62.07;99756.53;678397;29;1407;-91
2022/08/15 01:14:16;;;;;;;0.70;0.60;;;;;;;24.90;61.92;99747.88;677051;29;2033;-91
2022/08/15 01:14:39;;;;;;;0.70;0.60;;;;;;;24.95;61.89;99752.13;674829;29;1602;-92
2022/08/15 01:15:06;;;;;;;0.70;0.60;;;;;;;24.97;62.05;99753.78;672432;29;1315;-92
2022/08/15 01:15:27;;;;;;;0.70;0.60;;;;;;;24.90;62.00;99750.53;676281;29;1836;-92
2022/08/15 01:15:48;;;;;;;0.70;0.60;;;;;;;24.93;61.87;99754.84;684864;28;1699;-91
2022/08/15 01:16:09;;;;;;;0.70;0.50;;;;;;;24.96;61.90;99756.53;681975;29;1498;-91
2022/08/15 01:16:30;;;;;;;0.70;0.50;;;;;;;24.98;61.95;99752.84;675400;29;1830;-92
2022/08/15 01:16:52;;;;;;;0.70;0.50;;;;;;;24.97;62.06;99740.44;678251;29;1577;-92
2022/08/15 01:17:14;;;;;;;0.70;0.60;;;;;;;24.96;62.06;99746.69;680128;29;1512;-91
2022/08/15 01:17:39;;;;;;;0.70;0.60;;;;;;;24.99;61.97;99759.03;684035;28;2029;-92
2022/08/15 01:18:00;;;;;;;0.70;0.60;;;;;;;24.98;61.87;99752.84;679933;29;1258;-92
2022/08/15 01:18:21;;;;;;;0.70;0.60;;;;;;;25.00;61.80;99750.94;672470;29;1533;-92
2022/08/15 01:18:42;;;;;;;0.70;0.60;;;;;;;25.06;61.78;99755.13;674846;29;1107;-92
2022/08/15 01:19:11;;;;;;;0.70;0.50;;;;;;;25.04;61.70;99746.34;682777;28;1426;-93
2022/08/15 01:19:36;;;;;;;0.70;0.60;;;;;;;25.08;61.75;99745.22;683382;28;1563;-92
2022/08/15 01:20:17;;;;;;;0.70;0.60;;;;;;;25.10;61.67;99754.06;674607;29;1277;-91
2022/08/15 01:20:42;;;;;;;0.70;0.60;;;;;;;25.03;61.60;99745.47;677344;29;2020;-92
2022/08/15 01:21:28;;;;;;;0.70;0.70;;;;;;;25.12;61.64;99760.19;684984;28;1906;-92
2022/08/15 01:22:17;;;;;;;0.70;0.70;;;;;;;25.15;61.60;99756.53;679769;29;1258;-91
2022/08/15 01:22:50;;;;;;;0.70;0.60;;;;;;;25.15;61.57;99760.03;676081;29;1257;-92
2022/08/15 01:23:25;;;;;;;0.70;0.60;;;;;;;25.13;61.40;99751.25;682405;29;1568;-92
2022/08/15 01:24:24;;;;;;;0.70;0.60;;;;;;;25.18;61.51;99751.00;677606;29;2112;-92
2022/08/15 01:24:51;;;;;;;0.70;0.60;;;;;;;25.13;61.46;99745.91;680241;29;1531;-92
2022/08/15 01:25:17;;;;;;;0.70;0.60;;;;;;;25.17;61.54;99750.16;677434;29;1492;-92
2022/08/15 01:25:46;;;;;;;0.70;0.60;;;;;;;25.17;61.33;99747.50;674985;29;1431;-92
2022/08/15 01:26:08;;;;;;;0.70;0.60;;;;;;;25.18;61.43;99751.00;680594;29;1852;-92
2022/08/15 01:26:31;;;;;;;0.70;0.60;;;;;;;25.17;61.52;99746.63;682781;29;1293;-92
2022/08/15 01:26:53;;;;;;;0.70;0.60;;;;;;;25.14;61.62;99742.28;674831;29;1332;-91
2022/08/15 01:27:15;;;;;;;0.70;0.60;;;;;;;25.16;61.38;99744.91;678415;29;1352;-92
2022/08/15 01:27:41;;;;;;;0.70;0.60;;;;;;;25.17;61.28;99747.50;677377;29;1462;-92
2022/08/15 01:28:13;;;;;;;0.70;0.60;;;;;;;25.16;61.18;99745.75;672275;29;1214;-91
2022/08/15 01:28:41;;;;;;;0.70;0.60;;;;;;;25.19;61.22;99750.94;677336;29;1656;-91
2022/08/15 01:29:02;;;;;;;0.70;0.60;;;;;;;25.18;61.25;99749.22;679761;29;1229;-92
2022/08/15 01:29:26;;;;;;;0.70;0.60;;;;;;;25.12;61.18;99740.63;674904;29;1239;-92
2022/08/15 01:29:50;;;;;;;0.70;0.60;;;;;;;25.11;61.22;99733.56;677270;29;1747;-92
2022/08/15 01:30:15;;;;;;;0.70;0.60;;;;;;;25.17;61.13;99738.59;677296;29;1418;-91
2022/08/15 01:30:40;;;;;;;0.70;0.60;;;;;;;25.11;61.13;99737.13;681055;29;2050;-92
2022/08/15 01:31:25;;;;;;;0.70;0.60;;;;;;;25.10;61.13;99724.72;679436;29;1326;-92
2022/08/15 01:31:47;;;;;;;0.70;0.60;;;;;;;25.09;61.07;99731.00;677277;29;1308;-92
2022/08/15 01:32:08;;;;;;;0.70;0.60;;;;;;;25.10;61.02;99730.06;674650;29;1570;-92
2022/08/15 01:32:30;;;;;;;0.70;0.60;;;;;;;25.13;61.36;99740.56;672303;29;1614;-91
2022/08/15 01:32:53;;;;;;;0.70;0.60;;;;;;;25.13;61.08;99735.22;679924;29;1309;-92
2022/08/15 01:33:15;;;;;;;0.70;0.60;;;;;;;25.10;60.93;99732.72;679980;29;1248;-92
2022/08/15 01:33:42;;;;;;;0.70;0.60;;;;;;;25.15;61.00;99749.34;674633;29;1571;-91
2022/08/15 01:34:03;;;;;;;0.70;0.60;;;;;;;25.11;60.99;99736.25;685076;28;1270;-91
2022/08/15 01:34:25;;;;;;;0.70;0.60;;;;;;;25.13;61.07;99734.38;682561;29;1200;-92
2022/08/15 01:34:45;;;;;;;0.70;0.60;;;;;;;25.11;61.35;99731.78;672753;29;1170;-91
2022/08/15 01:35:07;;;;;;;0.70;0.60;;;;;;;25.14;61.08;99736.94;677579;29;1231;-91
2022/08/15 01:35:29;;;;;;;0.70;0.60;;;;;;;25.12;61.17;99730.84;685320;28;1796;-91
2022/08/15 01:35:52;;;;;;;0.70;0.60;;;;;;;25.08;60.89;99726.53;677496;29;1378;-91
2022/08/15 01:36:14;;;;;;;0.70;0.60;;;;;;;25.15;60.87;99738.69;674748;29;1403;-91
2022/08/15 01:36:34;;;;;;;0.70;0.60;;;;;;;25.12;60.73;99744.19;675767;29;1593;-92
2022/08/15 01:36:57;;;;;;;0.70;0.60;;;;;;;25.12;60.90;99728.16;681575;29;1220;-92
2022/08/15 01:37:19;;;;;;;0.70;0.60;;;;;;;25.08;60.84;99731.03;680104;29;1318;-92
2022/08/15 01:37:41;;;;;;;0.70;0.60;;;;;;;25.12;60.71;99738.84;675266;29;1431;-92
2022/08/15 01:38:18;;;;;;;0.70;0.60;;;;;;;25.06;60.82;99726.63;672470;29;1243;-92
2022/08/15 01:38:44;;;;;;;0.70;0.50;;;;;;;25.07;60.73;99727.50;673310;29;2479;-92
2022/08/15 01:39:29;;;;;;;0.70;0.60;;;;;;;25.15;60.66;99745.84;682452;28;1517;-92
2022/08/15 01:40:02;;;;;;;0.70;0.60;;;;;;;25.09;60.72;99738.09;680777;29;1782;-92
2022/08/15 01:41:02;;;;;;;0.70;0.60;;;;;;;25.12;60.67;99744.19;677933;29;1200;-92
2022/08/15 01:41:37;;;;;;;0.70;0.60;;;;;;;25.12;60.71;99738.84;677291;29;1855;-91
2022/08/15 01:42:22;;;;;;;0.70;0.70;;;;;;;25.08;60.56;99723.88;679937;29;1383;-91
2022/08/15 01:42:47;;;;;;;0.70;0.60;;;;;;;25.09;60.62;99735.44;685036;28;1697;-92
2022/08/15 01:43:12;;;;;;;0.70;0.60;;;;;;;25.07;60.41;99740.84;677537;29;1400;-91
2022/08/15 01:43:38;;;;;;;0.70;0.60;;;;;;;24.99;60.40;99716.31;682231;28;1327;-91
2022/08/15 01:44:02;;;;;;;0.70;0.60;;;;;;;25.08;60.43;99737.22;682402;28;1786;-91
2022/08/15 01:44:31;;;;;;;0.70;0.50;;;;;;;25.07;60.45;99740.84;679874;28;1993;-92
2022/08/15 01:45:06;;;;;;;0.70;0.60;;;;;;;24.97;60.37;99727.09;686818;28;1192;-92
2022/08/15 01:45:30;;;;;;;0.70;0.60;;;;;;;24.97;60.59;99723.56;680265;29;947;-92
2022/08/15 01:45:54;;;;;;;0.70;0.50;;;;;;;24.97;60.23;99726.22;681352;29;1742;-91
2022/08/15 01:46:16;;;;;;;0.70;0.60;;;;;;;24.95;60.28;99728.09;679997;29;1126;-91
2022/08/15 01:46:47;;;;;;;0.70;0.60;;;;;;;24.96;60.14;99728.00;674755;29;1888;-91
2022/08/15 01:47:26;;;;;;;0.70;0.60;;;;;;;24.99;60.36;99740.34;677443;29;1639;-92
2022/08/15 01:47:54;;;;;;;0.70;0.60;;;;;;;24.94;59.96;99723.72;682182;29;1395;-92
2022/08/15 01:48:23;;;;;;;0.70;0.60;;;;;;;24.94;60.29;99731.72;677408;29;1150;-91
2022/08/15 01:48:51;;;;;;;0.70;0.60;;;;;;;24.91;60.17;99727.41;677318;29;2129;-90
2022/08/15 01:49:22;;;;;;;0.70;0.60;;;;;;;24.91;60.15;99722.91;674782;29;1320;-92
2022/08/15 01:49:52;;;;;;;0.70;0.55;;;;;;;24.84;60.08;99712.63;679670;29;1367;-92
2022/08/15 01:50:18;;;;;;;0.70;0.57;;;;;;;24.86;60.13;99718.75;677575;29;1404;-92
2022/08/15 01:50:44;;;;;;;0.70;0.50;;;;;;;24.84;60.13;99717.97;682673;28;1754;-92
2022/08/15 01:51:10;;;;;;;0.70;0.50;;;;;;;24.78;59.90;99706.63;677355;29;1343;-92
2022/08/15 01:51:34;;;;;;;0.70;0.60;;;;;;;24.83;60.21;99718.91;674788;29;1872;-91
2022/08/15 01:51:58;;;;;;;0.70;0.60;;;;;;;24.81;59.96;99713.63;680099;29;1322;-91
2022/08/15 01:52:23;;;;;;;0.70;0.60;;;;;;;24.86;60.01;99727.63;672261;29;1243;-92
2022/08/15 01:52:57;;;;;;;0.70;0.50;;;;;;;24.82;60.11;99718.03;672312;29;1272;-92
2022/08/15 01:53:42;;;;;;;0.70;0.50;;;;;;;24.84;60.13;99717.97;669728;29;1275;-92
2022/08/15 01:54:09;;;;;;;0.70;0.50;;;;;;;24.86;60.13;99722.28;678929;29;1246;-92
2022/08/15 01:54:36;;;;;;;0.70;0.50;;;;;;;24.87;60.00;99724.00;679890;29;1794;-92
2022/08/15 01:55:00;;;;;;;0.70;0.60;;;;;;;24.87;59.90;99726.69;676217;29;1270;-92
2022/08/15 01:55:30;;;;;;;0.70;0.50;;;;;;;24.89;60.06;99729.28;679945;29;1185;-91
2022/08/15 01:55:59;;;;;;;0.70;0.60;;;;;;;24.89;59.94;99727.47;670404;29;1269;-92
2022/08/15 01:56:29;;;;;;;0.70;0.60;;;;;;;24.90;59.97;99726.50;681123;29;1096;-92
2022/08/15 01:56:50;;;;;;;0.70;0.60;;;;;;;24.88;59.92;99719.53;682720;28;1348;-92
2022/08/15 01:57:11;;;;;;;0.70;0.60;;;;;;;24.89;59.83;99724.78;672190;29;1244;-92
2022/08/15 01:57:32;;;;;;;0.70;0.60;;;;;;;24.91;59.79;99730.06;677504;29;1329;-92
2022/08/15 01:57:52;;;;;;;0.70;0.60;;;;;;;24.90;59.74;99723.00;678253;29;1191;-91
2022/08/15 01:58:14;;;;;;;0.70;0.60;;;;;;;24.89;59.79;99722.13;677426;29;1299;-92
2022/08/15 01:58:41;;;;;;;0.70;0.60;;;;;;;24.91;59.70;99725.56;674357;29;1836;-91
2022/08/15 01:59:05;;;;;;;0.70;0.60;;;;;;;24.87;59.64;99724.00;676451;29;1606;-91
2022/08/15 01:59:25;;;;;;;0.70;0.60;;;;;;;24.90;59.64;99721.19;675884;29;1276;-91
2022/08/15 01:59:58;;;;;;;0.70;0.60;;;;;;;24.89;59.70;99724.78;678638;29;1790;-92
2022/08/15 02:00:21;;;;;;;0.70;0.60;;;;;;;24.88;59.53;99724.84;680924;29;1093;-92
2022/08/15 02:01:00;;;;;;;0.70;0.60;;;;;;;24.93;59.66;99730.84;680119;29;1702;-92
2022/08/15 02:01:37;;;;;;;0.70;0.50;;;;;;;24.92;59.49;99732.63;681006;29;1612;-92
2022/08/15 02:02:04;;;;;;;0.70;0.60;;;;;;;24.91;59.50;99725.56;679443;29;1351;-92
2022/08/15 02:02:26;;;;;;;0.70;0.60;;;;;;;24.88;59.47;99723.06;677576;29;1333;-92
2022/08/15 02:02:48;;;;;;;0.70;0.60;;;;;;;24.86;59.54;99719.63;677577;29;1320;-92